| time (UTC) | temp C | wind direction | speed KPH | gust KPH | rain 1hr cm | rain 24hr cm | rain mn cm | humidity % | barometer mb |
| 20260906210032 | 26 | 185 | 16.1 | 33.8 | 0.00 | 0.08 | 0.08 | 66 | 1008.6 |
| 20260906204530 | 26 | 150 | 33.8 | 51.5 | 0.00 | 0.08 | 0.08 | 66 | 1008.1 |
| 20260906203029 | 28 | 131 | 40.2 | 53.1 | 0.00 | 0.08 | 0.08 | 58 | 1007.7 |
| 20260906201529 | 32 | 126 | 32.2 | 45.1 | 0.00 | 0.08 | 0.08 | 50 | 1007.8 |
| 20260906200028 | 31 | 130 | 30.6 | 45.1 | 0.00 | 0.08 | 0.08 | 48 | 1007.6 |
| 20260906194536 | 31 | 130 | 29.0 | 41.8 | 0.00 | 0.08 | 0.08 | 49 | 1007.8 |
| 20260906193025 | 32 | 182 | 19.3 | 29.0 | 0.00 | 0.08 | 0.08 | 45 | 1008.0 |
| 20260906191524 | 32 | 142 | 17.7 | 25.7 | 0.00 | 0.08 | 0.08 | 44 | 1008.0 |
| 20260906190022 | 32 | 139 | 20.9 | 32.2 | 0.00 | 0.08 | 0.08 | 45 | 1008.3 |
| 20260906184531 | 32 | 141 | 16.1 | 29.0 | 0.00 | 0.08 | 0.08 | 45 | 1008.3 |
| 20260906183025 | 32 | 126 | 24.1 | 32.2 | 0.00 | 0.08 | 0.08 | 47 | 1008.6 |
| 20260906181543 | 31 | 165 | 16.1 | 33.8 | 0.00 | 0.08 | 0.08 | 47 | 1008.8 |
| 20260906180015 | 31 | 132 | 22.5 | 37.0 | 0.00 | 0.08 | 0.08 | 47 | 1009.1 |
| 20260906174514 | 31 | 137 | 25.7 | 40.2 | 0.00 | 0.08 | 0.08 | 49 | 1009.2 |
| 20260906173008 | 30 | 144 | 24.1 | 30.6 | 0.00 | 0.08 | 0.08 | 51 | 1009.6 |
| 20260906171505 | 29 | 147 | 14.5 | 20.9 | 0.00 | 0.08 | 0.08 | 54 | 1009.7 |
| 20260906170001 | 28 | 202 | 11.3 | 16.1 | 0.00 | 0.08 | 0.08 | 56 | 1009.8 |
| 20260906164559 | 28 | 188 | 9.7 | 17.7 | 0.00 | 0.08 | 0.08 | 58 | 1009.9 |
| 20260906163103 | 27 | 193 | 9.7 | 14.5 | 0.00 | 0.08 | 0.08 | 61 | 1009.8 |
| 20260906161604 | 27 | 192 | 9.7 | 16.1 | 0.00 | 0.08 | 0.08 | 62 | 1009.8 |
| 20260906160052 | 26 | 188 | 11.3 | 19.3 | 0.00 | 0.08 | 0.08 | 62 | 1009.9 |
| 20260906154551 | 26 | 189 | 9.7 | 17.7 | 0.00 | 0.08 | 0.08 | 64 | 1009.7 |
| 20260906153048 | 25 | 155 | 11.3 | 22.5 | 0.00 | 0.08 | 0.08 | 68 | 1009.7 |
| 20260906151548 | 25 | 156 | 9.7 | 16.1 | 0.00 | 0.08 | 0.08 | 70 | 1009.7 |
| 20260906150048 | 24 | 128 | 11.3 | 17.7 | 0.00 | 0.08 | 0.08 | 71 | 1009.7 |
| 20260906144547 | 23 | 161 | 9.7 | 14.5 | 0.00 | 0.08 | 0.08 | 73 | 1009.6 |
| 20260906143050 | 23 | 161 | 8.0 | 14.5 | 0.00 | 0.08 | 0.08 | 74 | 1009.4 |
| 20260906141545 | 23 | 140 | 8.0 | 16.1 | 0.00 | 0.08 | 0.08 | 77 | 1009.3 |
| 20260906140058 | 22 | 196 | 6.4 | 11.3 | 0.00 | 0.08 | 0.08 | 79 | 1009.3 |
| 20260906134549 | 21 | 130 | 6.4 | 14.5 | 0.00 | 0.08 | 0.08 | 81 | 1009.1 |
| 20260906133042 | 21 | 138 | 8.0 | 17.7 | 0.00 | 0.08 | 0.08 | 82 | 1009.0 |
| 20260906131541 | 21 | 121 | 9.7 | 16.1 | 0.00 | 0.08 | 0.08 | 82 | 1008.8 |
| 20260906130042 | 21 | 157 | 9.7 | 14.5 | 0.03 | 0.08 | 0.08 | 83 | 1008.7 |
| 20260906124542 | 21 | 134 | 9.7 | 16.1 | 0.03 | 0.08 | 0.08 | 83 | 1008.4 |
| 20260906123039 | 21 | 137 | 9.7 | 14.5 | 0.03 | 0.08 | 0.08 | 83 | 1008.4 |
| 20260906121539 | 21 | 134 | 12.9 | 17.7 | 0.03 | 0.08 | 0.08 | 84 | 1008.2 |
| 20260906120038 | 21 | 134 | 14.5 | 22.5 | 0.00 | 0.05 | 0.05 | 85 | 1008.2 |
| 20260906114544 | 21 | 128 | 11.3 | 17.7 | 0.00 | 0.05 | 0.05 | 87 | 1008.1 |
| 20260906113035 | 21 | 128 | 12.9 | 16.1 | 0.00 | 0.05 | 0.05 | 86 | 1008.3 |
| 20260906111533 | 21 | 128 | 9.7 | 19.3 | 0.00 | 0.05 | 0.05 | 87 | 1008.4 |
| 20260906110034 | 21 | 119 | 12.9 | 17.7 | 0.00 | 0.05 | 0.05 | 88 | 1008.4 |
| 20260906104529 | 21 | 132 | 12.9 | 17.7 | 0.00 | 0.05 | 0.05 | 88 | 1008.3 |
| 20260906103027 | 21 | 127 | 11.3 | 14.5 | 0.00 | 0.05 | 0.05 | 88 | 1008.3 |
| 20260906101526 | 21 | 118 | 11.3 | 14.5 | 0.00 | 0.05 | 0.05 | 86 | 1008.5 |
| 20260906100028 | 22 | 88 | 4.8 | 9.7 | 0.00 | 0.05 | 0.05 | 84 | 1008.5 |
| 20260906094522 | 22 | 117 | 4.8 | 11.3 | 0.00 | 0.05 | 0.05 | 83 | 1008.6 |
| 20260906093021 | 22 | 134 | 8.0 | 14.5 | 0.00 | 0.05 | 0.05 | 83 | 1008.5 |
| 20260906091524 | 22 | 142 | 12.9 | 19.3 | 0.00 | 0.05 | 0.05 | 83 | 1008.4 |
| 20260906090021 | 22 | 134 | 16.1 | 20.9 | 0.00 | 0.05 | 0.05 | 83 | 1008.2 |
| 20260906084517 | 22 | 136 | 17.7 | 22.5 | 0.00 | 0.05 | 0.05 | 83 | 1008.2 |
| 20260906083016 | 21 | 139 | 12.9 | 17.7 | 0.00 | 0.05 | 0.05 | 85 | 1008.2 |
| 20260906081512 | 21 | 129 | 9.7 | 17.7 | 0.00 | 0.05 | 0.05 | 84 | 1008.4 |
| 20260906080010 | 21 | 121 | 12.9 | 17.7 | 0.03 | 0.05 | 0.05 | 84 | 1008.8 |
| 20260906074507 | 21 | 109 | 11.3 | 20.9 | 0.03 | 0.05 | 0.05 | 85 | 1009.1 |
| 20260906073004 | 21 | 60 | 12.9 | 24.1 | 0.05 | 0.05 | 0.05 | 85 | 1009.2 |
| 20260906071502 | 21 | 52 | 14.5 | 20.9 | 0.05 | 0.05 | 0.05 | 84 | 1009.4 |
| 20260906070058 | 22 | 76 | 11.3 | 20.9 | 0.03 | 0.03 | 0.03 | 81 | 1009.4 |
| 20260906064559 | 22 | 84 | 17.7 | 29.0 | 0.03 | 0.05 | 0.03 | 79 | 1009.6 |
| 20260906063056 | 22 | 10 | 17.7 | 33.8 | 0.00 | 0.03 | 0.00 | 78 | 1009.6 |
| 20260906061553 | 23 | 346 | 11.3 | 25.7 | 0.00 | 0.03 | 0.00 | 74 | 1010.0 |
| 20260906060117 | 23 | 12 | 14.5 | 25.7 | 0.00 | 0.03 | 0.00 | 69 | 1010.2 |
| 20260906054544 | 24 | 5 | 17.7 | 29.0 | 0.00 | 0.05 | 0.00 | 66 | 1009.5 |
| 20260906053040 | 25 | 30 | 16.1 | 27.4 | 0.00 | 0.05 | 0.00 | 64 | 1009.3 |
| 20260906051536 | 26 | 360 | 16.1 | 22.5 | 0.00 | 0.05 | 0.00 | 61 | 1009.1 |
| 20260906050033 | 26 | 5 | 6.4 | 17.7 | 0.00 | 0.05 | 0.00 | 58 | 1009.3 |
| 20260906044530 | 25 | 20 | 4.8 | 22.5 | 0.00 | 0.05 | 0.05 | 63 | 1009.1 |
| 20260906043029 | 26 | 321 | 8.0 | 12.9 | 0.00 | 0.05 | 0.05 | 54 | 1008.8 |
| 20260906041531 | 27 | 138 | 8.0 | 14.5 | 0.00 | 0.05 | 0.05 | 53 | 1008.3 |
| 20260906040035 | 27 | 130 | 8.0 | 17.7 | 0.00 | 0.05 | 0.05 | 54 | 1008.1 |
| 20260906034532 | 27 | 124 | 14.5 | 19.3 | 0.00 | 0.05 | 0.05 | 56 | 1007.9 |
| 20260906033027 | 26 | 100 | 9.7 | 17.7 | 0.00 | 0.05 | 0.05 | 60 | 1007.9 |
| 20260906031544 | 27 | 111 | 11.3 | 17.7 | 0.00 | 0.05 | 0.05 | 58 | 1007.9 |
| 20260906030026 | 27 | 109 | 11.3 | 20.9 | 0.00 | 0.05 | 0.05 | 56 | 1007.7 |
| 20260906024527 | 27 | 119 | 16.1 | 20.9 | 0.00 | 0.05 | 0.05 | 55 | 1007.4 |
| 20260906023024 | 27 | 109 | 11.3 | 19.3 | 0.00 | 0.05 | 0.05 | 57 | 1006.9 |
| 20260906021524 | 27 | 109 | 16.1 | 25.7 | 0.00 | 0.05 | 0.05 | 57 | 1006.4 |
| 20260906020023 | 27 | 80 | 12.9 | 19.3 | 0.00 | 0.05 | 0.05 | 56 | 1006.1 |
| 20260906014526 | 27 | 89 | 12.9 | 17.7 | 0.00 | 0.05 | 0.05 | 55 | 1006.0 |
| 20260906013022 | 28 | 116 | 9.7 | 17.7 | 0.00 | 0.05 | 0.05 | 53 | 1006.0 |
| 20260906011523 | 28 | 100 | 12.9 | 20.9 | 0.00 | 0.05 | 0.05 | 52 | 1005.6 |
| 20260906010022 | 29 | 130 | 16.1 | 25.7 | 0.00 | 0.05 | 0.05 | 50 | 1005.6 |
| 20260906004520 | 30 | 117 | 17.7 | 27.4 | 0.00 | 0.05 | 0.05 | 49 | 1005.7 |
| 20260906003023 | 30 | 119 | 20.9 | 43.5 | 0.00 | 0.05 | 0.05 | 44 | 1005.6 |
| 20260906001519 | 32 | 125 | 22.5 | 33.8 | 0.00 | 0.05 | 0.05 | 42 | 1005.4 |
| 20260906000020 | 34 | 130 | 19.3 | 25.7 | 0.00 | 0.05 | 0.05 | 34 | 1004.9 |
| 20260905234618 | 33 | 170 | 14.5 | 27.4 | 0.00 | 0.05 | 0.05 | 36 | 1004.8 |
| 20260905233018 | 33 | 153 | 14.5 | 24.1 | 0.00 | 0.05 | 0.05 | 36 | 1004.6 |
| 20260905231524 | 34 | 201 | 12.9 | 32.2 | 0.00 | 0.05 | 0.05 | 35 | 1004.6 |
| 20260905230016 | 35 | 135 | 22.5 | 35.4 | 0.00 | 0.05 | 0.05 | 33 | 1004.4 |
| 20260905224518 | 35 | 171 | 11.3 | 25.7 | 0.00 | 0.05 | 0.05 | 32 | 1004.2 |
| 20260905223014 | 35 | 198 | 11.3 | 19.3 | 0.00 | 0.05 | 0.05 | 30 | 1004.3 |
| 20260905221513 | 35 | 202 | 11.3 | 20.9 | 0.00 | 0.05 | 0.05 | 29 | 1004.1 |
| 20260905220014 | 36 | 194 | 14.5 | 25.7 | 0.00 | 0.05 | 0.05 | 30 | 1004.1 |
| 20260905214511 | 36 | 186 | 9.7 | 22.5 | 0.00 | 0.05 | 0.05 | 28 | 1004.1 |
| 20260905213110 | 36 | 145 | 17.7 | 27.4 | 0.00 | 0.05 | 0.05 | 28 | 1004.3 |
| 20260905211505 | 37 | 252 | 3.2 | 19.3 | 0.00 | 0.05 | 0.05 | 28 | 1004.5 |